createdAt,value
2019-02-28T00:00:52.852Z,9.09
2019-02-28T00:06:47.834Z,9.9
2019-02-28T00:12:45.195Z,10.05
2019-02-28T00:18:37.851Z,10.43
2019-02-28T00:24:32.864Z,10.35
2019-02-28T00:30:27.831Z,9.16
2019-02-28T00:36:22.849Z,9.33
2019-02-28T00:42:18.361Z,10.91
2019-02-28T00:48:12.854Z,10.6
2019-02-28T00:54:08.498Z,11.71
2019-02-28T01:00:05.373Z,12.48
2019-02-28T01:05:57.885Z,12.65
2019-02-28T01:11:52.876Z,12.65
2019-02-28T01:17:47.886Z,13.95
2019-02-28T01:23:42.875Z,14.63
2019-02-28T01:29:37.890Z,15.02
2019-02-28T01:35:32.898Z,17.87
2019-02-28T01:41:27.879Z,19.07
2019-02-28T01:47:22.915Z,19.1
2019-02-28T01:53:19.484Z,21.05
2019-02-28T01:59:12.910Z,21.08
2019-02-28T02:05:07.948Z,22.89
2019-02-28T02:11:02.947Z,24.71
2019-02-28T02:16:58.195Z,26.33
2019-02-28T02:22:52.906Z,24.14
2019-02-28T02:28:47.927Z,21.29
2019-02-28T02:34:42.972Z,22.81
2019-02-28T02:40:37.916Z,23.17
2019-02-28T02:46:32.938Z,22.15
2019-02-28T02:52:30.349Z,23.33
2019-02-28T02:58:26.502Z,23.84
2019-02-28T03:04:22.820Z,24.13
2019-02-28T03:10:17.217Z,23.99
2019-02-28T03:16:07.953Z,22.23
2019-02-28T03:22:02.965Z,17.91
2019-02-28T03:27:57.966Z,18.31
2019-02-28T03:33:52.989Z,19.32
2019-02-28T03:39:47.951Z,19.24
2019-02-28T03:45:42.956Z,20
2019-02-28T03:51:37.992Z,22.12
2019-02-28T03:57:32.981Z,19.2
2019-02-28T04:03:33.278Z,20.4
2019-02-28T04:09:22.986Z,22.53
2019-02-28T04:15:17.963Z,24.43
2019-02-28T04:21:12.990Z,26.91
2019-02-28T04:27:08.019Z,25.52
2019-02-28T04:33:03.050Z,24.77
2019-02-28T04:38:57.985Z,23.06
2019-02-28T04:44:52.997Z,24.73
2019-02-28T04:50:47.981Z,22.77
2019-02-28T04:56:45.467Z,24.97
2019-02-28T05:02:37.990Z,22.96
2019-02-28T05:08:32.992Z,25.11
2019-02-28T05:14:27.993Z,22.76
2019-02-28T05:20:23.044Z,22.44
2019-02-28T05:26:18.041Z,22.49
2019-02-28T05:32:13.024Z,21.07
2019-02-28T05:38:08.029Z,19.99
2019-02-28T05:44:03.157Z,22.22
2019-02-28T05:49:58.061Z,23.05
2019-02-28T05:55:53.056Z,25.71
2019-02-28T06:01:48.048Z,25.11
2019-02-28T06:07:43.027Z,23.47
2019-02-28T06:13:38.067Z,22.17
2019-02-28T06:19:33.052Z,22.71
2019-02-28T06:25:28.032Z,22.97
2019-02-28T06:31:23.043Z,22.66
2019-02-28T06:37:18.045Z,26.94
2019-02-28T06:43:14.174Z,28.25
2019-02-28T06:49:08.060Z,28.35
2019-02-28T06:55:03.095Z,29.68
2019-02-28T07:00:58.071Z,28.65
2019-02-28T07:06:53.079Z,26.8
2019-02-28T07:12:48.090Z,30.46
2019-02-28T07:18:43.099Z,28.75
2019-02-28T07:24:38.227Z,28.4
2019-02-28T07:30:33.078Z,28.29
2019-02-28T07:36:28.100Z,24.59
2019-02-28T07:42:23.089Z,32.38
2019-02-28T07:48:18.137Z,32.04
2019-02-28T07:54:15.795Z,34.28
2019-02-28T08:00:08.107Z,30.52
2019-02-28T08:06:04.732Z,23.04
2019-02-28T08:11:58.148Z,20.41
2019-02-28T08:17:53.117Z,21.35
2019-02-28T08:23:48.190Z,20.85
2019-02-28T08:29:45.595Z,18.53
2019-02-28T08:35:38.168Z,20.43
2019-02-28T08:41:33.118Z,19.34
2019-02-28T08:47:28.157Z,19.94
2019-02-28T08:53:23.154Z,20.37
2019-02-28T08:59:19.595Z,21.75
2019-02-28T09:05:13.183Z,21.68
2019-02-28T09:11:08.176Z,21.38
2019-02-28T09:17:03.224Z,23.96
2019-02-28T09:23:01.489Z,23.52
2019-02-28T09:28:53.177Z,23.64
2019-02-28T09:34:48.156Z,24.32
2019-02-28T09:40:43.197Z,23.6
2019-02-28T09:46:38.185Z,26.86
2019-02-28T09:52:33.161Z,27.65
2019-02-28T09:58:29.167Z,28.73
2019-02-28T10:04:23.175Z,26.55
2019-02-28T10:10:20.751Z,25.61
2019-02-28T10:16:13.530Z,23.27
2019-02-28T10:22:10.045Z,23.85
2019-02-28T10:28:03.181Z,25.1
2019-02-28T10:33:58.178Z,26.65
2019-02-28T10:39:53.233Z,27.11
2019-02-28T10:45:48.199Z,29.45
2019-02-28T10:51:44.605Z,32.07
2019-02-28T10:57:40.382Z,30.35
2019-02-28T11:03:33.318Z,32.78
2019-02-28T11:09:28.273Z,31.33
2019-02-28T11:15:23.214Z,36.34
2019-02-28T11:21:18.212Z,34.43
2019-02-28T11:27:13.222Z,37
2019-02-28T11:33:08.232Z,36.51
2019-02-28T11:39:03.273Z,36.09
2019-02-28T11:44:58.265Z,35.99
2019-02-28T11:50:53.259Z,34.2
2019-02-28T11:56:48.278Z,36.59
2019-02-28T12:02:43.247Z,33.37
2019-02-28T12:08:38.297Z,33.83
2019-02-28T12:14:33.246Z,35.2
2019-02-28T12:20:28.274Z,36.19
2019-02-28T12:26:23.271Z,37.26
2019-02-28T12:32:18.273Z,33.95
2019-02-28T12:38:13.292Z,32.88
2019-02-28T12:44:08.311Z,31.47
2019-02-28T12:50:03.284Z,31.24
2019-02-28T12:55:58.294Z,28.84
2019-02-28T13:01:53.328Z,29.5
2019-02-28T13:07:48.608Z,28.98
2019-02-28T13:13:43.307Z,61.33
2019-02-28T13:19:38.314Z,30.71
2019-02-28T13:25:33.306Z,28.71
2019-02-28T13:31:28.357Z,30.55
2019-02-28T13:37:23.303Z,30.17
2019-02-28T13:43:20.729Z,30.13
2019-02-28T13:49:15.462Z,30.01
2019-02-28T13:55:08.330Z,30.62
2019-02-28T14:01:03.362Z,31.42
2019-02-28T14:06:58.343Z,33.29
2019-02-28T14:12:56.848Z,31.81
2019-02-28T14:18:48.324Z,30.23
2019-02-28T14:24:43.363Z,31.83
2019-02-28T14:30:38.332Z,30.81
2019-02-28T14:36:33.332Z,28.71
2019-02-28T14:42:28.394Z,28.46
2019-02-28T14:48:23.343Z,28.57
2019-02-28T14:54:18.376Z,27.95
2019-02-28T15:00:13.383Z,26.97
2019-02-28T15:06:08.359Z,25.54
2019-02-28T15:12:03.392Z,25.8
2019-02-28T15:17:58.354Z,23.1
2019-02-28T15:23:53.397Z,21.6
2019-02-28T15:29:48.372Z,22.46
2019-02-28T15:35:43.416Z,20.85
2019-02-28T15:41:38.386Z,10.47
2019-02-28T15:47:33.392Z,8.59
2019-02-28T15:53:28.392Z,9.65
2019-02-28T15:59:23.441Z,11.75
2019-02-28T16:05:18.448Z,10.24
2019-02-28T16:11:13.443Z,10.09
2019-02-28T16:17:08.410Z,10.25
2019-02-28T16:23:03.436Z,10.2
2019-02-28T16:28:58.426Z,10.33
2019-02-28T16:34:53.475Z,10.29
2019-02-28T16:40:48.475Z,10.2
2019-02-28T16:46:46.363Z,10.33
2019-02-28T16:52:39.917Z,10.77
2019-02-28T16:58:33.426Z,10.76
2019-02-28T17:04:28.442Z,11.75
2019-02-28T17:10:23.422Z,12.57
2019-02-28T17:16:18.467Z,12.21
2019-02-28T17:22:13.548Z,12.34
2019-02-28T17:28:08.444Z,13.33
2019-02-28T17:34:03.451Z,11.95
2019-02-28T17:39:58.464Z,12.75
2019-02-28T17:45:53.450Z,11.93
2019-02-28T21:18:53.808Z,14.12
2019-02-28T21:18:53.819Z,18.87
2019-02-28T21:18:53.832Z,19.44
2019-02-28T21:18:53.832Z,19.44
2019-02-28T21:18:53.856Z,19.44
2019-02-28T21:18:53.856Z,19.44
2019-02-28T21:18:53.876Z,19.44
2019-02-28T21:18:53.893Z,19.44
2019-02-28T21:18:53.907Z,19.44
2019-02-28T21:18:53.933Z,19.44
2019-02-28T21:18:53.951Z,19.44
2019-02-28T21:18:53.969Z,19.44
2019-02-28T21:18:54.015Z,19.44
2019-02-28T21:18:54.022Z,19.44
2019-02-28T21:18:54.088Z,19.44
2019-02-28T21:18:54.088Z,19.44
2019-02-28T21:18:54.105Z,19.44
2019-02-28T21:18:54.129Z,19.44
2019-02-28T21:18:54.143Z,19.44
2019-02-28T21:18:54.160Z,19.44
2019-02-28T21:18:54.224Z,19.44
2019-02-28T21:18:54.245Z,19.44
2019-02-28T21:18:54.294Z,19.44
2019-02-28T21:18:54.315Z,19.44
2019-02-28T21:18:54.328Z,19.44
2019-02-28T21:24:48.583Z,17.97
2019-02-28T21:30:43.584Z,18.67
2019-02-28T21:36:38.609Z,17.85
2019-02-28T21:42:33.607Z,16.87
2019-02-28T21:48:28.616Z,18.49
2019-02-28T21:54:23.617Z,21.05
2019-02-28T22:00:18.662Z,23.49
2019-02-28T22:06:13.617Z,22.6
2019-02-28T22:12:08.660Z,25.88
2019-02-28T22:18:03.640Z,24.05
2019-02-28T22:23:58.629Z,21.01
2019-02-28T22:29:53.625Z,23.63
2019-02-28T22:35:48.652Z,23.8
2019-02-28T22:41:43.630Z,24.15
2019-02-28T22:47:38.635Z,22.08
2019-02-28T22:53:33.653Z,19.15
2019-02-28T22:59:28.641Z,17.96
2019-02-28T23:05:23.702Z,18.46
2019-02-28T23:11:18.647Z,17.57
2019-02-28T23:17:13.667Z,16.93
2019-02-28T23:23:08.654Z,16.18
2019-02-28T23:29:03.683Z,17.27
2019-02-28T23:34:58.663Z,17.37
2019-02-28T23:40:53.699Z,16.8
2019-02-28T23:46:48.697Z,16.6
2019-02-28T23:52:43.660Z,17.72
2019-02-28T23:58:38.740Z,20.74
